Monte Caseros, Argentina

7:45 AM ART on July 29, 2015 (GMT -0300)
Rubem Berta International | | Change Station
CLOSE
Current Station
Airport
Location: Uruguaiana Airport,
Elevation: 243 ft
Nearby Weather Stations

Elev 243 ft 29.78 °S, 57.04 °W | Updated 45 minutes ago

Mostly Cloudy
Mostly Cloudy
64 °F
Feels Like 64 °F
N
9
Wind Variable Wind from NE

Today
High -- | Low -- °F
--% Chance of Precip.
Yesterday
High -- | Low -- °F
Precip. -- in
7:38 AM 6:15 PM
Waxing Gibbous, 95% visible
Pressure 29.98 in
Visibility 6.2 miles
Clouds Few 3300 ft
Mostly Cloudy 9900 ft
Dew Point 59 °F
Humidity 83%
Rainfall 0.00 in
Snow Depth Not available.
UV 0 out of 12
Pollen Not available.
Air Quality Not available.
Flu Activity Not available.
METAR SBUG 291000Z 04008KT 9999 FEW033 BKN099 18/15 Q1015

More Conditions Fewer Conditions

Pressure 29.98 in
Visibility 6.2 miles
Clouds Few 3300 ft
Mostly Cloudy 9900 ft
Dew Point 59 °F
Humidity 83%
Rainfall 0.00 in
Snow Depth Not available.
UV 0 out of 12
Pollen Not available.
Air Quality Not available.
Flu Activity Not available.
METAR SBUG 291000Z 04008KT 9999 FEW033 BKN099 18/15 Q1015

More Conditions Fewer Conditions

10-Day Weather Forecast

×

Almanac

Astronomy

Jul. 29, 2015 Rise Set
Actual Time
Civil Twilight
Nautical Twilight
Astronomical Twilight
Moon
Length of Visible Light
Length of Day
Tomorrow will be .
, % of the Moon is Illuminated

Today's Extremes

Country Highs Country Lows

Community

WunderPhotos

Upload Photos

1,842,069 photos uploaded!

WunderBlogs® & News

Nearby

Air Quality

  Air Quality AQ Index Pollutant
Not available.

Snow Depth

Station Depth Elevation

Earthquake Activity

City Distance Mag. Time & Date
Minimum magnitude displayed is 2.5.

Coastal Water Temperatures

Place Temperature

Stations

Nearby Weather Stations

Station Location Temp. Windchill Dew Point Humidity Wind Precip. Elev Updated Type